Time;durP1;ratioP1;P1;durP2;ratioP2;P2;SDS_P1;SDS_P2;PMS_P1;PMS_P2;Temp;Humidity;BMP_temperature;BMP_pressure;BME280_temperature;BME280_humidity;BME280_pressure;Samples;Min_cycle;Max_cycle;Signal;HPM_P1;HPM_P2
2022/09/07 00:01:38;;;;;;;4.63;3.85;;;22.60;62.00;;;;;;5052416;28;20486;-72
2022/09/07 00:04:04;;;;;;;4.10;3.70;;;22.60;62.10;;;;;;5052381;28;20058;-71
2022/09/07 00:06:33;;;;;;;5.85;4.13;;;22.60;62.10;;;;;;5052604;28;20455;-71
2022/09/07 00:09:00;;;;;;;4.43;3.50;;;22.60;62.10;;;;;;5053651;28;20091;-71
2022/09/07 00:11:26;;;;;;;5.18;3.63;;;22.60;62.10;;;;;;5052883;28;20053;-72
2022/09/07 00:13:53;;;;;;;4.05;3.60;;;22.50;62.00;;;;;;5053304;28;20057;-73
2022/09/07 00:16:21;;;;;;;4.07;3.50;;;22.50;62.00;;;;;;5054793;28;20048;-73
2022/09/07 00:18:49;;;;;;;3.95;3.30;;;22.50;62.00;;;;;;5053818;28;20474;-72
2022/09/07 00:21:16;;;;;;;4.75;3.67;;;22.50;62.10;;;;;;5052087;28;20049;-71
2022/09/07 00:23:43;;;;;;;3.80;3.30;;;22.50;62.00;;;;;;5052799;28;20066;-72
2022/09/07 00:26:11;;;;;;;5.80;3.70;;;22.50;62.10;;;;;;5053992;28;20049;-73
2022/09/07 00:28:37;;;;;;;4.03;3.58;;;22.50;62.60;;;;;;5052827;28;20056;-73
2022/09/07 00:31:05;;;;;;;5.32;3.40;;;22.50;62.10;;;;;;5053188;28;20135;-73
2022/09/07 00:33:31;;;;;;;4.03;3.63;;;22.50;62.10;;;;;;5070016;28;20409;-73
2022/09/07 00:35:59;;;;;;;4.38;3.72;;;22.50;62.10;;;;;;5052824;28;20063;-73
2022/09/07 00:38:26;;;;;;;4.95;3.45;;;22.50;62.10;;;;;;5052751;28;20059;-73
2022/09/07 00:40:53;;;;;;;5.63;3.88;;;22.50;62.10;;;;;;5051568;28;20059;-73
2022/09/07 00:43:30;;;;;;;4.88;3.67;;;22.50;62.10;;;;;;5052300;28;20049;-72
2022/09/07 00:45:56;;;;;;;3.88;3.28;;;22.50;62.00;;;;;;5052404;28;20079;-71
2022/09/07 00:48:24;;;;;;;4.43;3.60;;;22.50;62.10;;;;;;5051357;28;20063;-71
2022/09/07 00:50:52;;;;;;;3.90;3.50;;;22.40;62.00;;;;;;5051624;28;20490;-71
2022/09/07 00:53:21;;;;;;;6.32;4.00;;;22.50;62.10;;;;;;5051828;28;20056;-71
2022/09/07 00:55:49;;;;;;;5.05;3.67;;;22.50;62.10;;;;;;5051781;28;20461;-71
2022/09/07 00:58:16;;;;;;;3.92;3.47;;;22.40;62.00;;;;;;5051559;28;20056;-71
2022/09/07 01:00:42;;;;;;;4.65;3.58;;;22.40;62.00;;;;;;5051426;28;20057;-71
2022/09/07 01:03:09;;;;;;;3.63;3.33;;;22.40;62.00;;;;;;5051344;28;20449;-71
2022/09/07 01:05:39;;;;;;;3.45;3.15;;;22.50;62.10;;;;;;5052566;28;20077;-72
2022/09/07 01:08:05;;;;;;;4.35;3.53;;;22.40;62.00;;;;;;5051455;28;20080;-71
2022/09/07 01:10:34;;;;;;;3.97;3.40;;;22.40;62.10;;;;;;5051330;28;20052;-72
2022/09/07 01:13:01;;;;;;;4.90;3.70;;;22.40;62.00;;;;;;5051228;28;20057;-72
2022/09/07 01:15:31;;;;;;;4.38;3.20;;;22.40;62.10;;;;;;5051848;28;20553;-73
2022/09/07 01:18:01;;;;;;;4.35;3.70;;;22.40;62.00;;;;;;5051796;28;20048;-71
2022/09/07 01:20:39;;;;;;;4.20;3.50;;;22.40;62.00;;;;;;5051336;28;20056;-72
2022/09/07 01:23:36;;;;;;;5.35;3.30;;;22.40;62.00;;;;;;5052275;28;20049;-71
2022/09/07 01:26:45;;;;;;;4.30;3.70;;;22.40;62.50;;;;;;5051882;28;20056;-73
2022/09/07 01:29:16;;;;;;;3.92;3.30;;;22.40;62.00;;;;;;5043306;28;20045;-71
2022/09/07 01:31:48;;;;;;;4.60;3.65;;;22.40;62.20;;;;;;5051058;28;20060;-71
2022/09/07 01:34:19;;;;;;;4.22;3.47;;;22.40;62.10;;;;;;5052134;28;20516;-71
2022/09/07 01:36:48;;;;;;;4.43;3.63;;;22.40;62.10;;;;;;5051123;28;20074;-71
2022/09/07 01:39:15;;;;;;;4.18;3.38;;;22.30;62.10;;;;;;5051079;28;20055;-72
2022/09/07 01:41:43;;;;;;;3.83;3.33;;;22.40;62.20;;;;;;5050290;28;20086;-71
2022/09/07 01:44:10;;;;;;;3.83;3.42;;;22.30;62.10;;;;;;5050883;28;20052;-71
2022/09/07 01:46:40;;;;;;;3.67;3.25;;;22.30;62.10;;;;;;5050991;28;20064;-72
2022/09/07 01:49:10;;;;;;;4.32;3.55;;;22.40;62.10;;;;;;5053124;28;20049;-72
2022/09/07 01:51:38;;;;;;;5.03;3.90;;;22.30;62.10;;;;;;5052496;28;20060;-72
2022/09/07 01:54:07;;;;;;;4.30;3.22;;;22.30;62.10;;;;;;5050229;28;20063;-72
2022/09/07 01:56:35;;;;;;;3.55;3.20;;;22.30;62.10;;;;;;5051719;28;20063;-72
2022/09/07 01:59:03;;;;;;;4.65;3.45;;;22.30;62.10;;;;;;5030362;28;20064;-72
2022/09/07 02:01:31;;;;;;;4.90;3.33;;;22.30;62.20;;;;;;5030571;28;20063;-71
2022/09/07 02:04:02;;;;;;;4.00;3.47;;;22.30;62.20;;;;;;5031752;28;20057;-72
2022/09/07 02:06:33;;;;;;;3.78;3.40;;;22.30;62.20;;;;;;5033615;28;20123;-72
2022/09/07 02:09:02;;;;;;;4.20;3.65;;;21.40;61.70;;;;;;5050312;28;20056;-72
2022/09/07 02:11:30;;;;;;;5.15;3.17;;;22.20;62.20;;;;;;5050292;28;20140;-71
2022/09/07 02:13:59;;;;;;;5.32;3.22;;;22.20;62.20;;;;;;5050592;28;20413;-71
2022/09/07 02:16:27;;;;;;;4.30;3.40;;;22.20;62.20;;;;;;5050808;28;20052;-71
2022/09/07 02:18:55;;;;;;;4.45;3.65;;;22.20;62.70;;;;;;5050363;28;20055;-71
2022/09/07 02:21:26;;;;;;;5.72;3.53;;;22.20;62.20;;;;;;5050135;28;20110;-71
2022/09/07 02:23:55;;;;;;;3.92;3.25;;;22.20;62.20;;;;;;5051508;28;20049;-72
2022/09/07 02:26:23;;;;;;;3.67;3.30;;;22.20;62.20;;;;;;5050413;28;20063;-72
2022/09/07 02:28:50;;;;;;;3.80;3.40;;;22.20;62.20;;;;;;5050259;28;20055;-71
2022/09/07 02:31:16;;;;;;;4.53;3.50;;;22.20;62.20;;;;;;5050273;28;20057;-71
2022/09/07 02:33:43;;;;;;;4.57;3.70;;;22.20;62.20;;;;;;5050235;28;20053;-71
2022/09/07 02:36:10;;;;;;;5.15;3.40;;;22.20;62.20;;;;;;5051071;28;20059;-71
2022/09/07 02:38:38;;;;;;;4.50;3.53;;;22.20;62.20;;;;;;5033914;28;20059;-72
2022/09/07 02:41:05;;;;;;;4.07;3.30;;;22.20;62.30;;;;;;5051244;28;20445;-71
2022/09/07 02:43:32;;;;;;;3.92;3.42;;;22.20;62.30;;;;;;5050195;28;20059;-71
2022/09/07 02:46:15;;;;;;;5.20;3.28;;;22.20;62.30;;;;;;5050446;28;20557;-71
2022/09/07 02:48:46;;;;;;;4.00;3.53;;;22.20;62.20;;;;;;5051305;28;20045;-71
2022/09/07 02:51:15;;;;;;;4.03;3.40;;;22.20;62.30;;;;;;5049453;28;20059;-71
2022/09/07 02:54:15;;;;;;;5.38;3.42;;;22.20;62.30;;;;;;5050249;28;20120;-71
2022/09/07 02:56:49;;;;;;;4.00;3.60;;;22.20;62.20;;;;;;5046460;28;20565;-71
2022/09/07 02:59:22;;;;;;;4.18;3.55;;;22.10;62.30;;;;;;5049893;28;20049;-71
2022/09/07 03:01:54;;;;;;;4.70;3.50;;;22.10;62.30;;;;;;5049681;28;20052;-71
2022/09/07 03:04:23;;;;;;;3.90;3.50;;;22.10;62.30;;;;;;5050932;28;20061;-72
2022/09/07 03:06:52;;;;;;;4.45;3.40;;;22.10;62.30;;;;;;5053672;28;20079;-71
2022/09/07 03:09:22;;;;;;;3.83;3.35;;;22.10;62.30;;;;;;5053683;28;20055;-72
2022/09/07 03:11:49;;;;;;;3.53;3.10;;;22.10;62.30;;;;;;5053359;28;20065;-71
2022/09/07 03:14:17;;;;;;;3.85;3.33;;;22.10;62.30;;;;;;5053838;28;20074;-71
2022/09/07 03:16:43;;;;;;;4.45;3.45;;;22.10;62.40;;;;;;5053762;28;20061;-72
2022/09/07 03:19:10;;;;;;;4.22;3.42;;;22.10;62.40;;;;;;5053260;28;20045;-71
2022/09/07 03:21:37;;;;;;;5.53;3.90;;;22.10;62.40;;;;;;5053195;28;20049;-71
2022/09/07 03:24:04;;;;;;;3.72;3.30;;;22.10;62.30;;;;;;5053616;28;20506;-72
2022/09/07 03:26:32;;;;;;;4.15;3.40;;;22.10;62.40;;;;;;5054813;28;20048;-71
2022/09/07 03:28:59;;;;;;;3.80;3.40;;;22.10;62.40;;;;;;5054460;28;20049;-71
2022/09/07 03:31:25;;;;;;;3.42;3.13;;;22.10;62.40;;;;;;5053943;28;20055;-71
2022/09/07 03:33:52;;;;;;;3.95;3.45;;;22.10;62.40;;;;;;5052821;28;20450;-71
2022/09/07 03:36:19;;;;;;;4.20;3.53;;;22.10;62.40;;;;;;5053263;28;20055;-71
2022/09/07 03:38:46;;;;;;;3.80;3.42;;;22.00;62.30;;;;;;5056857;28;20083;-72
2022/09/07 03:41:12;;;;;;;4.38;3.67;;;22.10;62.40;;;;;;5054555;28;20055;-72
2022/09/07 03:43:40;;;;;;;3.70;3.28;;;22.00;62.30;;;;;;5053911;28;20063;-72
2022/09/07 03:46:09;;;;;;;4.63;3.70;;;22.10;62.40;;;;;;5053587;28;20063;-72
2022/09/07 03:48:36;;;;;;;4.60;3.30;;;22.00;62.30;;;;;;5052973;28;20099;-73
2022/09/07 03:51:04;;;;;;;3.47;2.83;;;22.00;62.40;;;;;;5053159;28;20053;-73
2022/09/07 03:53:31;;;;;;;4.57;3.55;;;22.00;62.40;;;;;;5054074;28;20053;-73
2022/09/07 03:55:58;;;;;;;5.10;3.40;;;22.00;62.40;;;;;;5053229;28;20056;-73
2022/09/07 03:58:25;;;;;;;3.80;3.40;;;22.00;62.40;;;;;;5053121;28;20063;-73
2022/09/07 04:00:53;;;;;;;3.70;3.30;;;22.00;62.40;;;;;;5054015;28;20056;-73
2022/09/07 04:03:20;;;;;;;4.35;3.60;;;22.00;62.40;;;;;;5052637;28;20064;-73
2022/09/07 04:05:46;;;;;;;4.00;3.60;;;22.00;62.40;;;;;;5053077;28;20478;-73
2022/09/07 04:08:13;;;;;;;3.70;3.40;;;22.00;62.40;;;;;;5053885;28;20052;-73
2022/09/07 04:10:40;;;;;;;4.43;3.42;;;22.00;62.40;;;;;;5052645;28;20482;-71
2022/09/07 04:13:07;;;;;;;4.80;3.42;;;22.00;62.40;;;;;;5052542;28;20053;-73
2022/09/07 04:15:33;;;;;;;3.95;3.30;;;22.00;62.40;;;;;;5052454;28;20075;-72
2022/09/07 04:18:01;;;;;;;3.58;3.13;;;22.00;62.40;;;;;;5052421;28;20387;-72
2022/09/07 04:20:29;;;;;;;3.45;3.13;;;22.00;62.40;;;;;;5052267;28;20053;-72
2022/09/07 04:22:56;;;;;;;3.70;3.30;;;21.90;62.30;;;;;;5052960;28;20056;-72
2022/09/07 04:25:22;;;;;;;3.85;3.45;;;22.00;62.40;;;;;;5052825;28;20386;-72
2022/09/07 04:27:49;;;;;;;4.10;3.50;;;21.90;62.30;;;;;;5049648;28;20056;-71
2022/09/07 04:30:16;;;;;;;4.13;3.53;;;22.00;62.40;;;;;;5051398;28;20060;-72
2022/09/07 04:32:42;;;;;;;4.40;3.33;;;22.00;62.40;;;;;;5069007;28;20052;-72
2022/09/07 04:35:11;;;;;;;3.60;3.30;;;21.90;62.40;;;;;;5052233;28;20057;-72
2022/09/07 04:37:38;;;;;;;3.85;3.45;;;21.90;62.30;;;;;;5052360;28;20055;-72
2022/09/07 04:40:05;;;;;;;3.78;3.40;;;21.90;62.40;;;;;;5052029;28;20059;-72
2022/09/07 04:42:32;;;;;;;3.95;3.55;;;21.90;62.30;;;;;;5068924;28;20084;-72
2022/09/07 04:44:58;;;;;;;3.70;3.17;;;21.90;62.40;;;;;;5052080;28;20502;-72
2022/09/07 04:47:25;;;;;;;3.80;3.40;;;21.90;62.40;;;;;;5051691;28;20048;-72
2022/09/07 04:49:52;;;;;;;3.72;3.20;;;21.90;62.40;;;;;;5051731;28;20049;-72
2022/09/07 04:52:20;;;;;;;3.65;3.35;;;21.90;62.40;;;;;;5051590;28;20136;-72
2022/09/07 04:54:48;;;;;;;5.03;3.00;;;21.80;62.30;;;;;;5051733;28;20076;-72
2022/09/07 04:57:15;;;;;;;4.00;3.25;;;21.90;62.40;;;;;;5051700;28;20053;-72
2022/09/07 04:59:42;;;;;;;3.63;3.30;;;21.90;62.40;;;;;;5051704;28;20127;-72
2022/09/07 05:02:09;;;;;;;3.80;3.40;;;21.80;62.30;;;;;;5051411;28;20401;-72
2022/09/07 05:04:35;;;;;;;3.80;3.40;;;21.80;62.30;;;;;;5052842;28;20131;-72
2022/09/07 05:07:02;;;;;;;3.42;3.13;;;21.90;62.40;;;;;;5051586;28;20139;-72
2022/09/07 05:09:30;;;;;;;4.82;3.28;;;21.80;62.40;;;;;;5051222;28;20061;-72
2022/09/07 05:11:57;;;;;;;3.90;3.30;;;21.90;62.40;;;;;;5068150;28;20375;-72
2022/09/07 05:14:23;;;;;;;3.67;3.38;;;21.80;62.30;;;;;;5051369;28;20059;-72
2022/09/07 05:16:50;;;;;;;3.42;3.13;;;21.80;62.30;;;;;;5051272;28;20064;-72
2022/09/07 05:19:17;;;;;;;3.90;3.45;;;21.80;62.30;;;;;;5051432;28;20068;-72
2022/09/07 05:21:43;;;;;;;3.85;3.40;;;21.90;62.40;;;;;;5050667;28;20055;-73
2022/09/07 05:24:10;;;;;;;4.13;3.20;;;21.90;62.40;;;;;;5051626;28;20059;-74
2022/09/07 05:26:38;;;;;;;3.78;3.38;;;21.80;62.40;;;;;;5050919;28;20651;-74
2022/09/07 05:29:05;;;;;;;3.92;3.28;;;21.80;62.30;;;;;;5052180;28;20049;-74
2022/09/07 05:31:32;;;;;;;4.60;3.35;;;21.80;62.30;;;;;;5050649;28;20132;-73
2022/09/07 05:33:59;;;;;;;3.67;3.30;;;21.80;62.30;;;;;;5050955;28;20056;-73
2022/09/07 05:36:26;;;;;;;3.75;3.38;;;21.80;62.30;;;;;;5052065;28;20449;-73
2022/09/07 05:38:53;;;;;;;3.55;3.08;;;21.80;62.90;;;;;;5052305;28;20052;-73
2022/09/07 05:41:21;;;;;;;3.88;3.47;;;21.80;62.40;;;;;;5050664;28;20055;-72
2022/09/07 05:43:49;;;;;;;4.70;3.90;;;21.80;62.30;;;;;;5051017;28;20060;-72
2022/09/07 05:46:15;;;;;;;3.80;3.40;;;21.80;62.30;;;;;;5050841;28;20262;-72
2022/09/07 05:48:42;;;;;;;3.60;3.22;;;21.80;62.40;;;;;;5051057;28;20049;-73
2022/09/07 05:51:09;;;;;;;4.15;3.13;;;21.80;62.40;;;;;;5050680;28;20059;-73
2022/09/07 05:53:36;;;;;;;3.88;3.47;;;21.80;62.40;;;;;;5050875;28;20063;-72
2022/09/07 05:56:03;;;;;;;5.07;3.50;;;21.80;62.30;;;;;;5051093;28;20500;-72
2022/09/07 05:58:30;;;;;;;3.50;3.20;;;21.80;62.30;;;;;;5051185;28;20059;-73
2022/09/07 06:00:59;;;;;;;3.97;3.55;;;21.80;62.40;;;;;;5051346;28;20140;-72
2022/09/07 06:03:25;;;;;;;5.75;3.25;;;21.80;62.40;;;;;;5051072;28;20136;-72
2022/09/07 06:05:59;;;;;;;3.45;3.15;;;21.80;62.40;;;;;;5051971;28;20055;-73
2022/09/07 06:08:26;;;;;;;3.50;3.10;;;21.80;62.30;;;;;;5050911;28;20084;-70
2022/09/07 06:10:53;;;;;;;4.05;3.65;;;21.70;62.40;;;;;;5050951;28;20131;-71
2022/09/07 06:13:19;;;;;;;3.60;3.30;;;21.70;62.40;;;;;;5050950;28;20045;-74
2022/09/07 06:15:46;;;;;;;3.70;3.40;;;21.70;62.40;;;;;;5049685;28;20721;-74
2022/09/07 06:18:14;;;;;;;3.65;3.28;;;21.70;62.40;;;;;;5049497;28;20052;-73
2022/09/07 06:20:41;;;;;;;3.30;3.00;;;21.70;62.30;;;;;;5049634;28;20051;-74
2022/09/07 06:23:08;;;;;;;3.45;3.08;;;21.70;62.30;;;;;;5049962;28;20049;-74
2022/09/07 06:25:34;;;;;;;3.38;3.08;;;21.70;62.30;;;;;;5050387;28;20669;-74
2022/09/07 06:28:02;;;;;;;3.30;3.00;;;21.70;62.30;;;;;;5051908;28;20075;-73
2022/09/07 06:30:29;;;;;;;5.55;3.70;;;21.70;62.30;;;;;;5049424;28;20664;-73
2022/09/07 06:32:55;;;;;;;4.60;4.13;;;21.70;62.40;;;;;;5051624;28;20056;-73
2022/09/07 06:35:23;;;;;;;6.68;4.57;;;21.70;62.50;;;;;;5050318;28;20048;-73
2022/09/07 06:37:50;;;;;;;5.53;4.45;;;21.70;62.50;;;;;;5050578;28;20052;-73
2022/09/07 06:40:17;;;;;;;6.25;5.10;;;21.70;62.70;;;;;;5054402;28;20049;-73
2022/09/07 06:42:44;;;;;;;5.00;4.38;;;21.70;62.80;;;;;;5054010;28;20055;-73
2022/09/07 06:45:10;;;;;;;6.00;3.92;;;21.70;62.70;;;;;;5053143;28;20067;-73
2022/09/07 06:47:37;;;;;;;6.55;3.60;;;21.70;62.90;;;;;;5051085;28;20144;-73
2022/09/07 06:50:04;;;;;;;4.38;3.80;;;21.80;62.80;;;;;;5053906;28;20127;-72
2022/09/07 06:52:32;;;;;;;3.88;3.47;;;21.80;62.70;;;;;;5053899;28;20063;-73
2022/09/07 06:54:59;;;;;;;5.85;3.83;;;21.90;62.60;;;;;;5053903;28;20056;-73
2022/09/07 06:57:25;;;;;;;3.60;3.30;;;21.90;62.80;;;;;;5053722;28;20130;-73
2022/09/07 06:59:52;;;;;;;7.35;4.10;;;21.90;62.70;;;;;;5054041;28;20079;-70
2022/09/07 07:02:19;;;;;;;5.85;3.50;;;21.90;63.00;;;;;;5055060;28;20401;-73
2022/09/07 07:04:46;;;;;;;5.25;3.50;;;22.00;63.10;;;;;;5054845;28;20143;-74
2022/09/07 07:07:13;;;;;;;7.53;3.83;;;22.00;63.00;;;;;;5053700;28;20056;-74
2022/09/07 07:09:41;;;;;;;7.72;3.97;;;22.00;63.20;;;;;;5053811;28;20044;-74
2022/09/07 07:12:08;;;;;;;6.10;3.58;;;22.00;63.20;;;;;;5054757;28;20124;-74
2022/09/07 07:14:35;;;;;;;5.05;3.40;;;22.10;63.30;;;;;;5070125;28;20078;-73
2022/09/07 07:17:02;;;;;;;7.00;3.92;;;22.10;63.30;;;;;;5054486;28;20051;-74
2022/09/07 07:19:28;;;;;;;12.10;4.50;;;22.10;63.40;;;;;;5053627;28;20489;-73
2022/09/07 07:21:55;;;;;;;8.05;3.92;;;22.20;63.90;;;;;;5053197;28;20053;-74
2022/09/07 07:24:22;;;;;;;5.65;3.60;;;22.10;64.10;;;;;;5053943;28;20059;-74
2022/09/07 07:26:50;;;;;;;8.25;4.10;;;22.20;64.50;;;;;;5053124;28;20512;-74
2022/09/07 07:29:17;;;;;;;10.05;4.55;;;22.20;64.80;;;;;;5054531;28;20049;-72
2022/09/07 07:31:44;;;;;;;11.57;4.07;;;22.20;64.70;;;;;;5052864;28;20059;-72
2022/09/07 07:34:11;;;;;;;9.65;4.20;;;22.00;65.00;;;;;;5053791;28;20136;-71
2022/09/07 07:36:38;;;;;;;7.75;3.75;;;22.30;64.40;;;;;;5053221;28;20141;-72
2022/09/07 07:39:05;;;;;;;5.22;3.75;;;22.20;64.20;;;;;;5053410;28;20135;-72
2022/09/07 07:41:31;;;;;;;9.07;3.78;;;22.20;64.20;;;;;;5053104;28;20079;-70
2022/09/07 07:43:59;;;;;;;6.82;3.97;;;22.20;64.20;;;;;;5053440;28;20048;-70
2022/09/07 07:46:27;;;;;;;7.22;4.22;;;22.20;64.10;;;;;;5052809;28;20195;-70
2022/09/07 07:48:54;;;;;;;7.32;3.67;;;22.20;64.20;;;;;;5051959;28;20586;-71
2022/09/07 07:51:20;;;;;;;9.02;3.88;;;22.20;64.20;;;;;;5051770;28;20116;-70
2022/09/07 07:53:47;;;;;;;7.88;3.78;;;22.20;64.10;;;;;;5052916;28;20057;-72
2022/09/07 07:56:15;;;;;;;7.68;3.97;;;22.20;64.10;;;;;;5052485;28;20060;-70
2022/09/07 07:58:44;;;;;;;5.97;3.70;;;22.20;64.10;;;;;;5052945;28;20049;-71
2022/09/07 08:01:13;;;;;;;7.93;3.55;;;22.20;64.10;;;;;;5053559;28;20052;-70
2022/09/07 08:03:42;;;;;;;6.15;3.90;;;22.20;64.00;;;;;;5052999;28;20065;-71
2022/09/07 08:06:10;;;;;;;4.78;3.70;;;22.20;64.00;;;;;;5053941;28;20118;-72
2022/09/07 08:08:37;;;;;;;6.38;4.22;;;22.20;64.20;;;;;;5052726;28;20428;-72
2022/09/07 08:11:05;;;;;;;8.88;4.28;;;22.10;64.10;;;;;;5052393;28;20055;-71
2022/09/07 08:13:32;;;;;;;5.68;3.35;;;22.20;64.10;;;;;;5069426;28;20059;-71
2022/09/07 08:15:59;;;;;;;4.65;3.53;;;22.20;64.20;;;;;;5053445;28;20099;-71
2022/09/07 08:18:27;;;;;;;5.97;3.92;;;22.20;64.20;;;;;;5052471;28;20715;-72
2022/09/07 08:20:54;;;;;;;7.20;4.10;;;22.20;64.50;;;;;;5053362;28;20064;-70
2022/09/07 08:23:21;;;;;;;5.65;3.55;;;22.20;64.60;;;;;;5052141;28;20056;-71
2022/09/07 08:25:51;;;;;;;7.75;3.50;;;22.20;64.60;;;;;;5050644;28;20045;-71
2022/09/07 08:28:22;;;;;;;6.03;3.60;;;22.20;64.40;;;;;;5051948;28;20063;-71
2022/09/07 08:30:49;;;;;;;6.75;3.90;;;22.20;64.40;;;;;;5051916;28;20048;-71
2022/09/07 08:33:15;;;;;;;5.65;4.38;;;22.20;64.30;;;;;;5051924;28;20051;-70
2022/09/07 08:35:53;;;;;;;9.68;3.88;;;22.20;64.40;;;;;;5052453;28;20043;-70
2022/09/07 08:38:20;;;;;;;6.93;3.30;;;22.20;64.40;;;;;;5048274;28;20059;-70
2022/09/07 08:40:46;;;;;;;4.70;3.33;;;22.20;64.40;;;;;;5049116;28;20048;-71
2022/09/07 08:43:16;;;;;;;5.55;3.50;;;22.20;64.40;;;;;;5051826;28;20056;-70
2022/09/07 08:45:43;;;;;;;3.80;3.25;;;22.20;64.40;;;;;;5049097;28;20048;-71
2022/09/07 08:48:10;;;;;;;7.60;3.53;;;22.20;64.40;;;;;;5051162;28;20056;-71
2022/09/07 08:50:39;;;;;;;7.43;3.35;;;22.20;64.50;;;;;;5051346;28;20052;-70
2022/09/07 08:53:10;;;;;;;7.00;3.63;;;22.20;65.10;;;;;;5051551;28;20091;-71
2022/09/07 08:55:39;;;;;;;5.53;3.75;;;22.20;64.60;;;;;;5049354;28;20053;-70
2022/09/07 08:58:09;;;;;;;4.53;3.55;;;22.20;64.70;;;;;;5052620;28;20095;-70
2022/09/07 09:00:38;;;;;;;4.85;3.50;;;22.20;64.80;;;;;;5048672;28;20493;-71
2022/09/07 09:03:07;;;;;;;7.25;3.33;;;22.20;64.80;;;;;;5051602;28;20398;-70
2022/09/07 09:05:37;;;;;;;4.65;3.50;;;22.20;64.80;;;;;;5051617;28;20049;-71
2022/09/07 09:08:12;;;;;;;5.53;3.60;;;22.30;65.00;;;;;;5051907;28;20041;-71
2022/09/07 09:10:44;;;;;;;5.40;3.42;;;22.30;65.00;;;;;;5049013;28;20132;-71
2022/09/07 09:13:15;;;;;;;4.53;3.53;;;22.30;65.00;;;;;;5052664;28;20049;-71
2022/09/07 09:15:50;;;;;;;4.68;3.40;;;22.30;65.10;;;;;;5050136;28;20047;-71
2022/09/07 09:18:25;;;;;;;5.65;3.30;;;22.30;65.10;;;;;;5049319;28;20110;-71
2022/09/07 09:20:53;;;;;;;4.05;2.95;;;22.40;65.20;;;;;;5050494;28;20057;-71
2022/09/07 09:23:23;;;;;;;6.50;3.72;;;22.40;65.10;;;;;;5051455;28;20124;-73
2022/09/07 09:25:52;;;;;;;7.25;3.63;;;22.40;65.00;;;;;;5051720;28;20048;-73
2022/09/07 09:28:19;;;;;;;4.65;3.08;;;22.30;64.90;;;;;;5050288;28;20060;-72
2022/09/07 09:30:46;;;;;;;7.95;3.55;;;22.40;64.80;;;;;;5051103;28;20049;-71
2022/09/07 09:33:15;;;;;;;7.15;3.50;;;22.40;64.90;;;;;;5050987;28;20060;-71
2022/09/07 09:35:42;;;;;;;5.07;3.05;;;22.40;64.90;;;;;;5049978;28;20506;-72
2022/09/07 09:38:33;;;;;;;4.35;3.10;;;22.50;65.00;;;;;;5051244;28;20057;-71
2022/09/07 09:41:03;;;;;;;4.20;3.03;;;22.50;64.80;;;;;;5050724;28;20063;-71
2022/09/07 09:43:34;;;;;;;4.18;3.22;;;22.40;64.90;;;;;;5051300;28;20063;-71
2022/09/07 09:46:01;;;;;;;7.90;3.33;;;22.50;65.00;;;;;;5051073;28;20061;-72
2022/09/07 09:48:31;;;;;;;5.38;3.30;;;22.50;65.10;;;;;;5051966;28;20057;-71
2022/09/07 09:50:58;;;;;;;4.00;3.13;;;22.50;65.20;;;;;;5050315;28;20481;-71
2022/09/07 09:53:27;;;;;;;5.90;3.60;;;22.50;65.20;;;;;;5049951;28;20053;-71
2022/09/07 09:55:55;;;;;;;8.02;3.30;;;22.50;65.20;;;;;;5050209;28;20060;-72
2022/09/07 09:58:28;;;;;;;4.88;3.70;;;22.50;65.10;;;;;;5050490;28;20063;-72
2022/09/07 10:00:56;;;;;;;11.52;3.60;;;22.50;65.10;;;;;;5050511;28;20144;-74
2022/09/07 10:03:25;;;;;;;9.40;3.55;;;22.50;65.10;;;;;;5050897;28;20049;-71
2022/09/07 10:05:52;;;;;;;4.65;3.33;;;22.50;65.10;;;;;;5051916;28;20386;-72
2022/09/07 10:08:19;;;;;;;4.25;2.97;;;22.50;65.10;;;;;;5034555;28;20422;-72
2022/09/07 10:10:55;;;;;;;4.78;3.38;;;22.50;64.90;;;;;;5049570;28;20045;-72
2022/09/07 10:13:22;;;;;;;4.82;3.00;;;22.50;64.80;;;;;;5050223;28;20060;-72
2022/09/07 10:15:53;;;;;;;3.83;3.20;;;22.50;64.70;;;;;;5049919;28;20063;-72
2022/09/07 10:18:22;;;;;;;6.97;3.47;;;22.50;64.70;;;;;;5050370;28;20063;-72
2022/09/07 10:20:49;;;;;;;5.05;3.40;;;22.50;64.70;;;;;;5050154;28;20052;-72
2022/09/07 10:23:20;;;;;;;5.85;3.58;;;22.50;64.70;;;;;;5048978;28;20061;-72
2022/09/07 10:25:47;;;;;;;4.47;3.10;;;22.50;64.70;;;;;;5050692;28;20118;-71
2022/09/07 10:28:18;;;;;;;4.57;3.53;;;22.50;64.70;;;;;;5050027;28;20140;-71
2022/09/07 10:31:06;;;;;;;4.53;3.42;;;22.60;64.80;;;;;;5050167;28;20133;-71
2022/09/07 10:33:37;;;;;;;4.20;3.00;;;22.50;64.80;;;;;;5051312;28;20045;-71
2022/09/07 10:36:07;;;;;;;6.68;3.92;;;22.50;64.80;;;;;;5051350;28;20123;-71
2022/09/07 10:38:36;;;;;;;3.92;3.28;;;22.50;64.80;;;;;;5050590;28;20080;-71
2022/09/07 10:41:04;;;;;;;5.90;3.83;;;22.50;64.80;;;;;;5050265;28;20049;-71
2022/09/07 10:43:41;;;;;;;6.55;3.33;;;22.60;64.90;;;;;;5051465;28;20135;-72
2022/09/07 10:46:32;;;;;;;8.68;3.50;;;22.60;64.80;;;;;;5050485;28;20553;-71
2022/09/07 10:49:09;;;;;;;7.78;3.75;;;22.60;64.80;;;;;;5049898;28;20056;-71
2022/09/07 10:51:36;;;;;;;7.63;3.63;;;22.60;65.00;;;;;;5050674;28;20045;-71
2022/09/07 10:54:07;;;;;;;7.60;3.15;;;22.60;64.90;;;;;;5050386;28;20060;-73
2022/09/07 10:56:36;;;;;;;8.82;3.72;;;22.60;64.90;;;;;;5050521;28;20052;-73
2022/09/07 10:59:07;;;;;;;6.45;2.88;;;22.60;64.90;;;;;;5050308;28;20049;-73
2022/09/07 11:01:44;;;;;;;4.55;3.50;;;22.60;65.00;;;;;;5049794;28;20045;-73
2022/09/07 11:04:23;;;;;;;10.10;3.70;;;22.60;65.30;;;;;;5051042;28;20055;-74
2022/09/07 11:06:51;;;;;;;9.80;4.07;;;22.60;65.50;;;;;;5049847;28;20064;-75
2022/09/07 11:09:43;;;;;;;8.20;3.75;;;22.70;65.60;;;;;;5050026;28;20059;-75
2022/09/07 11:12:14;;;;;;;5.97;4.18;;;22.70;65.70;;;;;;5049720;28;20486;-72
2022/09/07 11:14:45;;;;;;;6.30;3.35;;;22.70;65.80;;;;;;5049997;28;20071;-73
2022/09/07 11:17:14;;;;;;;6.82;3.47;;;22.70;65.80;;;;;;5051354;28;20131;-72
2022/09/07 11:19:43;;;;;;;7.10;3.67;;;22.70;65.80;;;;;;5049932;28;20107;-72
2022/09/07 11:22:18;;;;;;;4.93;3.50;;;22.70;65.80;;;;;;5049340;28;20044;-72
2022/09/07 11:24:48;;;;;;;6.43;3.88;;;23.10;66.00;;;;;;5049983;28;20059;-73
2022/09/07 11:27:18;;;;;;;5.50;4.57;;;22.80;66.10;;;;;;5053070;28;20049;-71
2022/09/07 11:29:48;;;;;;;6.55;3.60;;;22.80;66.30;;;;;;5054033;28;20045;-72
2022/09/07 11:32:19;;;;;;;8.35;3.50;;;22.80;66.00;;;;;;5054401;28;20059;-72
2022/09/07 11:34:47;;;;;;;6.88;3.63;;;22.80;65.80;;;;;;5054256;28;20051;-72
2022/09/07 11:37:19;;;;;;;5.07;3.05;;;22.80;65.60;;;;;;5054633;28;20132;-72
2022/09/07 11:39:48;;;;;;;7.55;3.58;;;22.80;65.40;;;;;;5053360;28;20072;-72
2022/09/07 11:42:17;;;;;;;5.63;3.05;;;22.90;65.50;;;;;;5054693;28;20115;-74
2022/09/07 11:44:48;;;;;;;4.45;3.30;;;22.90;65.20;;;;;;5054416;28;20052;-72
2022/09/07 11:47:19;;;;;;;5.50;3.38;;;23.00;65.30;;;;;;5053037;28;20437;-74
2022/09/07 11:49:46;;;;;;;4.90;3.22;;;23.00;65.30;;;;;;5053736;28;20056;-72
2022/09/07 11:52:18;;;;;;;6.25;4.15;;;23.00;65.10;;;;;;5052517;28;20053;-75
2022/09/07 11:54:47;;;;;;;6.63;3.78;;;23.00;65.20;;;;;;5036965;28;20057;-75
2022/09/07 11:57:37;;;;;;;5.57;3.80;;;23.00;65.20;;;;;;5053137;28;20414;-73
2022/09/07 12:00:09;;;;;;;9.32;4.18;;;23.00;65.20;;;;;;5052509;28;20080;-73
2022/09/07 12:02:58;;;;;;;5.38;3.67;;;23.10;65.40;;;;;;5053343;28;20546;-74
2022/09/07 12:05:32;;;;;;;5.35;3.15;;;23.00;65.10;;;;;;5052876;28;20060;-74
2022/09/07 12:08:11;;;;;;;5.95;3.20;;;23.10;65.00;;;;;;5053032;28;20442;-73
2022/09/07 12:11:20;;;;;;;3.60;3.00;;;23.10;64.70;;;;;;5052741;28;20136;-74
2022/09/07 12:14:04;;;;;;;5.35;3.10;;;23.10;64.70;;;;;;5029339;28;20057;-75
2022/09/07 12:16:38;;;;;;;4.95;3.20;;;23.10;64.50;;;;;;5051820;28;20056;-71
2022/09/07 12:19:21;;;;;;;4.75;3.33;;;23.10;64.60;;;;;;5053574;28;20049;-72
2022/09/07 12:21:49;;;;;;;5.55;2.83;;;23.10;64.50;;;;;;5049909;28;20497;-72
2022/09/07 12:24:43;;;;;;;6.25;3.25;;;23.10;64.50;;;;;;5052680;28;20061;-74
2022/09/07 12:27:11;;;;;;;4.13;2.63;;;23.20;64.30;;;;;;5018004;28;20496;-72
2022/09/07 12:29:38;;;;;;;3.25;2.47;;;23.10;64.20;;;;;;5052187;28;20091;-73
2022/09/07 12:32:08;;;;;;;4.93;2.85;;;23.10;64.20;;;;;;5052090;28;20053;-74
2022/09/07 12:34:53;;;;;;;7.10;2.70;;;23.20;64.10;;;;;;5052103;28;20486;-74
2022/09/07 12:37:45;;;;;;;;;;;23.20;64.00;;;;;;5053776;28;20782;-72
2022/09/07 12:40:47;;;;;;;4.00;2.88;;;23.20;64.10;;;;;;5052366;28;20094;-71
2022/09/07 12:43:51;;;;;;;3.28;2.70;;;23.20;64.00;;;;;;5052854;28;20421;-72
2022/09/07 12:46:43;;;;;;;4.80;2.97;;;23.20;63.90;;;;;;5052368;28;20437;-70
2022/09/07 12:49:39;;;;;;;4.57;2.88;;;23.20;64.00;;;;;;5051926;28;20053;-70
2022/09/07 12:52:12;;;;;;;5.95;2.78;;;23.20;64.10;;;;;;5052856;28;20397;-71
2022/09/07 12:54:41;;;;;;;3.92;2.50;;;23.20;64.20;;;;;;5035508;28;20084;-71
2022/09/07 12:57:17;;;;;;;4.07;2.50;;;23.20;64.10;;;;;;5051692;28;20059;-71
2022/09/07 12:59:51;;;;;;;3.60;2.33;;;23.20;64.10;;;;;;5051719;28;20057;-72
2022/09/07 13:02:54;;;;;;;4.53;2.78;;;23.20;64.00;;;;;;5051492;28;20053;-72